createdAt,value
2023-01-20T00:00:06.023Z,-1.67
2023-01-20T00:02:39.041Z,-1.66
2023-01-20T00:05:06.458Z,-1.78
2023-01-20T00:07:34.959Z,-1.73
2023-01-20T00:10:01.731Z,-1.59
2023-01-20T00:12:31.239Z,-1.60
2023-01-20T00:14:58.210Z,-1.62
2023-01-20T00:17:24.876Z,-1.68
2023-01-20T00:19:51.479Z,-1.51
2023-01-20T00:22:18.136Z,-1.55
2023-01-20T00:24:44.739Z,-1.52
2023-01-20T00:27:13.436Z,-1.46
2023-01-20T00:29:40.036Z,-1.62
2023-01-20T00:32:06.711Z,-1.59
2023-01-20T00:34:33.324Z,-1.58
2023-01-20T00:37:07.565Z,-1.79
2023-01-20T00:39:34.297Z,-1.78
2023-01-20T00:42:03.125Z,-1.68
2023-01-20T00:44:29.743Z,-1.67
2023-01-20T00:47:02.457Z,-1.69
2023-01-20T00:49:33.741Z,-1.64
2023-01-20T00:52:07.551Z,-1.63
2023-01-20T00:54:34.185Z,-1.66
2023-01-20T00:57:02.844Z,-1.52
2023-01-20T00:59:29.453Z,-1.41
2023-01-20T01:01:58.525Z,-1.36
2023-01-20T01:04:36.409Z,-1.37
2023-01-20T01:07:05.562Z,-1.20
2023-01-20T01:09:37.773Z,-1.20
2023-01-20T01:12:04.478Z,-1.22
2023-01-20T01:14:34.022Z,-1.15
2023-01-20T01:17:08.067Z,-1.16
2023-01-20T01:19:34.721Z,-1.01
2023-01-20T01:22:04.346Z,-0.89
2023-01-20T01:24:38.426Z,-1.08
2023-01-20T01:27:05.095Z,-1.03
2023-01-20T01:29:34.450Z,-1.11
2023-01-20T01:32:11.530Z,-0.98
2023-01-20T01:34:38.222Z,-1.10
2023-01-20T01:37:04.896Z,-1.05
2023-01-20T01:39:42.868Z,-0.96
2023-01-20T01:42:12.325Z,-1.01
2023-01-20T01:45:10.949Z,-1.07
2023-01-20T01:48:01.034Z,-1.10
2023-01-20T01:50:46.045Z,-1.29
2023-01-20T01:53:13.931Z,-1.26
2023-01-20T01:55:46.426Z,-1.30
2023-01-20T01:58:17.320Z,-1.34
2023-01-20T02:00:44.270Z,-1.20
2023-01-20T02:03:13.541Z,-1.31
2023-01-20T02:05:41.575Z,-1.31
2023-01-20T02:08:08.612Z,-1.43
2023-01-20T02:10:35.266Z,-1.45
2023-01-20T02:13:03.342Z,-1.47
2023-01-20T02:16:05.336Z,-1.40
2023-01-20T02:18:38.416Z,-1.43
2023-01-20T02:21:17.216Z,-1.45
2023-01-20T02:23:53.436Z,-1.41
2023-01-20T02:26:44.473Z,-1.57
2023-01-20T02:29:29.996Z,-1.53
2023-01-20T02:32:14.010Z,-1.51
2023-01-20T02:34:46.668Z,-1.30
2023-01-20T02:37:19.950Z,-1.18
2023-01-20T02:39:52.488Z,-1.32
2023-01-20T02:42:22.829Z,-1.29
2023-01-20T02:44:55.442Z,-1.24
2023-01-20T02:47:26.474Z,-1.04
2023-01-20T02:50:01.542Z,-0.99
2023-01-20T02:52:44.370Z,-0.96
2023-01-20T02:55:15.584Z,-0.91
2023-01-20T02:57:44.785Z,-0.88
2023-01-20T03:00:34.293Z,-0.97
2023-01-20T03:03:02.545Z,-0.88
2023-01-20T03:05:35.793Z,-0.83
2023-01-20T03:08:06.106Z,-0.62
2023-01-20T03:10:33.865Z,-0.60
2023-01-20T03:13:29.678Z,-0.71
2023-01-20T03:16:02.675Z,-0.78
2023-01-20T03:18:30.115Z,-0.82
2023-01-20T03:20:58.058Z,-0.80
2023-01-20T03:23:26.515Z,-0.76
2023-01-20T03:25:54.007Z,-0.74
2023-01-20T03:28:20.579Z,-0.84
2023-01-20T03:30:47.241Z,-0.95
2023-01-20T03:33:15.186Z,-1.03
2023-01-20T03:35:42.334Z,-1.03
2023-01-20T03:38:10.085Z,-0.97
2023-01-20T03:40:48.954Z,-0.69
2023-01-20T03:43:40.615Z,-0.78
2023-01-20T03:46:16.177Z,-0.71
2023-01-20T03:48:51.050Z,-0.67
2023-01-20T03:51:17.615Z,-0.63
2023-01-20T03:53:45.933Z,-0.66
2023-01-20T03:56:23.097Z,-0.66
2023-01-20T03:58:51.788Z,-0.67
2023-01-20T04:01:21.902Z,-0.72
2023-01-20T04:03:51.041Z,-0.75
2023-01-20T04:06:19.763Z,-0.70
2023-01-20T04:08:51.180Z,-0.56
2023-01-20T04:11:20.379Z,-0.68
2023-01-20T04:13:47.129Z,-0.70
2023-01-20T04:16:17.979Z,-0.75
2023-01-20T04:18:55.515Z,-0.70
2023-01-20T04:21:49.004Z,-0.69
2023-01-20T04:24:23.875Z,-0.57
2023-01-20T04:26:50.499Z,-0.63
2023-01-20T04:29:17.219Z,-0.55
2023-01-20T04:31:43.831Z,-0.39
2023-01-20T04:34:13.032Z,-0.52
2023-01-20T04:36:39.649Z,-0.53
2023-01-20T04:39:06.245Z,-0.55
2023-01-20T04:41:32.918Z,-0.56
2023-01-20T04:43:59.550Z,-0.65
2023-01-20T04:46:26.247Z,-0.65
2023-01-20T04:48:52.925Z,-0.65
2023-01-20T04:51:19.578Z,-0.64
2023-01-20T04:53:46.249Z,-0.80
2023-01-20T04:56:15.973Z,-0.83
2023-01-20T04:58:45.892Z,-0.89
2023-01-20T05:01:15.388Z,-0.89
2023-01-20T05:03:44.953Z,-0.90
2023-01-20T05:06:14.534Z,-0.75
2023-01-20T05:08:50.168Z,-0.62
2023-01-20T05:11:16.866Z,-0.82
2023-01-20T05:13:43.593Z,-0.87
2023-01-20T05:16:23.882Z,-0.90
2023-01-20T05:18:50.834Z,-0.90
2023-01-20T05:21:17.478Z,-0.83
2023-01-20T05:23:46.603Z,-0.99
2023-01-20T05:26:16.045Z,-1.04
2023-01-20T05:28:45.672Z,-1.00
2023-01-20T05:31:21.556Z,-0.95
2023-01-20T05:33:48.368Z,-1.11
2023-01-20T05:36:15.006Z,-1.10
2023-01-20T05:38:51.795Z,-1.19
2023-01-20T05:41:19.538Z,-1.23
2023-01-20T05:43:46.179Z,-1.47
2023-01-20T05:46:22.120Z,-1.50
2023-01-20T05:48:48.721Z,-1.60
2023-01-20T05:51:15.300Z,-1.65
2023-01-20T05:53:43.987Z,-1.44
2023-01-20T05:56:19.663Z,-1.53
2023-01-20T05:58:46.318Z,-1.59
2023-01-20T06:01:14.216Z,-1.58
2023-01-20T06:03:45.440Z,-1.62
2023-01-20T06:06:17.766Z,-1.61
2023-01-20T06:08:45.376Z,-1.65
2023-01-20T06:11:15.186Z,-1.63
2023-01-20T06:13:46.799Z,-1.61
2023-01-20T06:16:13.455Z,-1.64
2023-01-20T06:18:44.619Z,-1.72
2023-01-20T06:21:15.310Z,-1.62
2023-01-20T06:23:44.819Z,-1.78
2023-01-20T06:26:15.303Z,-1.71
2023-01-20T06:28:41.996Z,-1.65
2023-01-20T06:31:18.909Z,-1.63
2023-01-20T06:33:45.673Z,-1.66
2023-01-20T06:36:17.467Z,-1.71
2023-01-20T06:38:48.489Z,-1.65
2023-01-20T06:41:15.558Z,-1.53
2023-01-20T06:43:45.363Z,-1.60
2023-01-20T06:46:15.700Z,-1.53
2023-01-20T06:48:43.488Z,-1.53
2023-01-20T06:51:19.193Z,-1.48
2023-01-20T06:53:46.692Z,-1.48
2023-01-20T06:56:16.325Z,-1.55
2023-01-20T06:58:43.200Z,-1.63
2023-01-20T07:01:15.919Z,-1.61
2023-01-20T07:03:45.941Z,-1.69
2023-01-20T07:06:35.872Z,-1.60
2023-01-20T07:09:02.769Z,-1.52
2023-01-20T07:11:31.393Z,-1.42
2023-01-20T07:13:58.452Z,-1.49
2023-01-20T07:16:25.216Z,-1.45
2023-01-20T07:18:52.700Z,-1.43
2023-01-20T07:21:23.948Z,-1.35
2023-01-20T07:23:51.971Z,-1.31
2023-01-20T07:26:21.200Z,-1.18
2023-01-20T07:28:48.383Z,-1.21
2023-01-20T07:31:20.789Z,-1.16
2023-01-20T07:33:47.852Z,-1.12
2023-01-20T07:36:17.854Z,-1.10
2023-01-20T07:38:48.545Z,-1.09
2023-01-20T07:41:16.392Z,-1.14
2023-01-20T07:43:45.495Z,-1.15
2023-01-20T07:46:21.459Z,-1.13
2023-01-20T07:48:48.162Z,-1.08
2023-01-20T07:51:21.275Z,-1.11
2023-01-20T07:53:50.974Z,-1.06
2023-01-20T07:56:21.694Z,-1.04
2023-01-20T07:58:52.842Z,-1.02
2023-01-20T08:01:20.623Z,-0.99
2023-01-20T08:03:47.971Z,-0.97
2023-01-20T08:06:16.866Z,-0.94
2023-01-20T08:08:43.855Z,-0.90
2023-01-20T08:11:12.640Z,-0.83
2023-01-20T08:13:39.854Z,-0.87
2023-01-20T08:16:08.545Z,-0.85
2023-01-20T08:18:35.606Z,-0.83
2023-01-20T08:21:06.480Z,-0.79
2023-01-20T08:23:34.197Z,-0.75
2023-01-20T08:26:02.151Z,-0.74
2023-01-20T08:28:29.740Z,-0.68
2023-01-20T08:31:07.997Z,-0.66
2023-01-20T08:33:35.119Z,-0.46
2023-01-20T08:36:10.970Z,-0.36
2023-01-20T08:38:38.227Z,-0.40
2023-01-20T08:41:12.034Z,-0.46
2023-01-20T08:43:38.967Z,-0.41
2023-01-20T08:46:11.553Z,-0.37
2023-01-20T08:48:39.359Z,-0.28
2023-01-20T08:51:09.603Z,-0.31
2023-01-20T08:53:36.399Z,-0.32
2023-01-20T08:56:03.824Z,-0.30
2023-01-20T08:58:34.862Z,-0.36
2023-01-20T09:01:07.659Z,-0.45
2023-01-20T09:03:34.294Z,-0.46
2023-01-20T09:06:04.765Z,-0.21
2023-01-20T09:08:31.562Z,-0.25
2023-01-20T09:11:21.012Z,-0.23
2023-01-20T09:13:47.898Z,-0.12
2023-01-20T09:16:16.211Z,-0.26
2023-01-20T09:18:43.336Z,-0.31
2023-01-20T09:21:19.347Z,-0.22
2023-01-20T09:23:48.004Z,-0.25
2023-01-20T09:26:33.890Z,-0.34
2023-01-20T09:29:11.439Z,-0.21
2023-01-20T09:31:40.161Z,-0.13
2023-01-20T09:34:07.041Z,-0.26
2023-01-20T09:36:41.366Z,-0.20
2023-01-20T09:39:27.668Z,-0.26
2023-01-20T09:42:12.981Z,-0.28
2023-01-20T09:45:09.375Z,-0.09
2023-01-20T09:47:43.866Z,-0.11
2023-01-20T09:50:43.510Z,-0.07
2023-01-20T09:53:30.834Z,-0.02
2023-01-20T09:55:59.919Z,0.06
2023-01-20T09:58:45.212Z,-0.03
2023-01-20T10:01:24.547Z,-0.06
2023-01-20T10:04:06.404Z,-0.03
2023-01-20T10:06:39.550Z,-0.03
2023-01-20T10:09:23.414Z,0.09
2023-01-20T10:11:51.847Z,0.11
2023-01-20T10:14:33.164Z,0.35
2023-01-20T10:17:21.018Z,0.30
2023-01-20T10:19:54.520Z,0.55
2023-01-20T10:22:41.330Z,0.84
2023-01-20T10:25:23.104Z,0.99
2023-01-20T10:27:58.721Z,1.14
2023-01-20T10:30:32.121Z,0.96
2023-01-20T10:33:22.852Z,1.07
2023-01-20T10:35:52.023Z,1.26
2023-01-20T10:38:46.065Z,1.33
2023-01-20T10:41:31.124Z,1.11
2023-01-20T10:43:58.708Z,1.21
2023-01-20T10:47:00.553Z,1.19
2023-01-20T10:50:18.641Z,1.19
2023-01-20T10:53:00.715Z,1.38
2023-01-20T10:55:50.749Z,1.41
2023-01-20T10:58:22.288Z,1.47
2023-01-20T11:00:50.033Z,1.54
2023-01-20T11:03:19.955Z,1.73
2023-01-20T11:05:48.005Z,1.78
2023-01-20T11:08:19.675Z,1.74
2023-01-20T11:10:47.688Z,1.78
2023-01-20T11:13:14.418Z,1.72
2023-01-20T11:15:48.934Z,1.77
2023-01-20T11:18:15.461Z,1.63
2023-01-20T11:20:53.590Z,1.39
2023-01-20T11:23:38.688Z,1.49
2023-01-20T11:26:21.578Z,1.53
2023-01-20T11:28:49.429Z,1.62
2023-01-20T11:31:16.461Z,1.49
2023-01-20T11:33:57.756Z,1.70
2023-01-20T11:36:25.807Z,1.73
2023-01-20T11:38:56.575Z,1.77
2023-01-20T11:41:23.107Z,1.94
2023-01-20T11:43:51.321Z,1.98
2023-01-20T11:46:29.980Z,1.99
2023-01-20T11:49:25.942Z,1.58
2023-01-20T11:51:54.936Z,1.52
2023-01-20T11:54:27.017Z,1.57
2023-01-20T11:57:10.639Z,1.60
2023-01-20T11:59:49.309Z,1.81
2023-01-20T12:02:24.642Z,1.86
2023-01-20T12:05:03.395Z,1.88
2023-01-20T12:07:43.312Z,1.80
2023-01-20T12:10:25.275Z,1.77
2023-01-20T12:12:56.866Z,1.79
2023-01-20T12:15:26.685Z,1.91
2023-01-20T12:18:13.000Z,1.94
2023-01-20T12:20:54.891Z,2.02
2023-01-20T12:23:46.581Z,2.09
2023-01-20T12:26:18.453Z,1.82
2023-01-20T12:28:59.167Z,1.85
2023-01-20T12:31:26.045Z,1.91
2023-01-20T12:34:03.450Z,2.06
2023-01-20T12:36:39.369Z,2.21
2023-01-20T12:39:12.121Z,2.10
2023-01-20T12:42:02.647Z,2.18
2023-01-20T12:44:38.194Z,2.00
2023-01-20T12:47:46.361Z,1.97
2023-01-20T12:50:23.882Z,2.00
2023-01-20T12:53:17.925Z,2.18
2023-01-20T12:55:52.578Z,2.13
2023-01-20T12:58:41.239Z,2.13
2023-01-20T13:01:14.953Z,1.98
2023-01-20T13:03:55.503Z,2.00
2023-01-20T13:06:39.406Z,1.96
2023-01-20T13:09:40.475Z,1.87
2023-01-20T13:12:19.301Z,2.00
2023-01-20T13:14:49.422Z,1.95
2023-01-20T13:17:38.734Z,1.73
2023-01-20T13:20:16.496Z,1.92
2023-01-20T13:23:04.518Z,1.79
2023-01-20T13:25:39.263Z,1.83
2023-01-20T13:28:22.068Z,1.91
2023-01-20T13:31:03.979Z,1.97
2023-01-20T13:36:42.957Z,1.75
2023-01-20T13:39:41.030Z,1.73
2023-01-20T13:42:37.919Z,1.79
2023-01-20T13:45:14.408Z,1.73
2023-01-20T13:48:06.004Z,1.73
2023-01-20T13:50:33.867Z,1.62
2023-01-20T13:53:04.747Z,1.62
2023-01-20T13:55:40.919Z,1.62
2023-01-20T13:58:37.012Z,1.51
2023-01-20T14:01:07.795Z,1.56
2023-01-20T14:03:36.737Z,1.60
2023-01-20T14:06:18.828Z,1.55
2023-01-20T14:08:50.449Z,1.63
2023-01-20T14:11:22.561Z,1.61
2023-01-20T14:13:53.551Z,1.61
2023-01-20T14:16:23.213Z,1.50
2023-01-20T14:18:50.111Z,1.56
2023-01-20T14:21:20.231Z,1.50
2023-01-20T14:23:47.037Z,1.52
2023-01-20T14:26:23.732Z,1.50
2023-01-20T14:29:00.930Z,1.45
2023-01-20T14:31:36.592Z,1.33
2023-01-20T14:34:19.860Z,1.28
2023-01-20T14:36:47.332Z,1.38
2023-01-20T14:39:25.841Z,1.31
2023-01-20T14:41:55.581Z,1.26
2023-01-20T14:44:28.201Z,1.25
2023-01-20T14:46:59.758Z,1.20
2023-01-20T14:49:39.277Z,1.20
2023-01-20T14:52:07.349Z,1.19
2023-01-20T14:54:38.246Z,1.14
2023-01-20T14:57:25.019Z,1.11
2023-01-20T15:00:15.812Z,1.08
2023-01-20T15:02:49.219Z,1.05
2023-01-20T15:05:29.954Z,1.02
2023-01-20T15:08:11.768Z,0.96
2023-01-20T15:10:49.216Z,0.93
2023-01-20T15:13:27.915Z,0.87
2023-01-20T15:16:28.411Z,0.81
2023-01-20T15:19:13.468Z,0.72
2023-01-20T15:21:42.003Z,0.71
2023-01-20T15:24:23.233Z,0.63
2023-01-20T15:26:52.399Z,0.57
2023-01-20T15:29:27.576Z,0.47
2023-01-20T15:31:56.168Z,0.50
2023-01-20T15:34:23.579Z,0.48
2023-01-20T15:36:51.260Z,0.45
2023-01-20T15:39:20.782Z,0.42
2023-01-20T15:41:48.692Z,0.36
2023-01-20T15:44:15.564Z,0.38
2023-01-20T15:46:42.325Z,0.34
2023-01-20T15:49:12.048Z,0.27
2023-01-20T15:51:45.232Z,0.20
2023-01-20T15:54:13.685Z,0.14
2023-01-20T15:56:42.004Z,0.07
2023-01-20T15:59:17.079Z,-0.01
2023-01-20T16:01:49.821Z,-0.04
2023-01-20T16:04:16.794Z,-0.08
2023-01-20T16:06:52.896Z,-0.10
2023-01-20T16:09:37.062Z,-0.13
2023-01-20T16:12:07.170Z,-0.14
2023-01-20T16:14:36.142Z,-0.16
2023-01-20T16:17:12.857Z,-0.15
2023-01-20T16:19:40.876Z,-0.18
2023-01-20T16:22:08.681Z,-0.16
2023-01-20T16:24:38.100Z,-0.19
2023-01-20T16:27:16.913Z,-0.20
2023-01-20T16:29:43.597Z,-0.22
2023-01-20T16:32:10.341Z,-0.17
2023-01-20T16:34:37.267Z,-0.20
2023-01-20T16:37:06.424Z,-0.17
2023-01-20T16:39:36.117Z,-0.15
2023-01-20T16:42:05.410Z,-0.13
2023-01-20T16:44:37.601Z,-0.15
2023-01-20T16:47:21.872Z,-0.13
2023-01-20T16:49:50.509Z,-0.09
2023-01-20T16:52:17.475Z,-0.06
2023-01-20T16:54:44.265Z,-0.04
2023-01-20T16:57:11.062Z,0.01
2023-01-20T16:59:37.725Z,-0.01
2023-01-20T17:02:12.123Z,-0.05
2023-01-20T17:04:38.928Z,-0.04
2023-01-20T17:07:08.378Z,-0.06
2023-01-20T17:09:45.717Z,-0.06
2023-01-20T17:12:12.426Z,-0.06
2023-01-20T17:14:39.256Z,-0.03
2023-01-20T17:17:17.615Z,-0.02
2023-01-20T17:19:44.596Z,-0.02
2023-01-20T17:22:11.551Z,-0.02
2023-01-20T17:24:43.127Z,-0.02
2023-01-20T17:27:10.106Z,-0.02
2023-01-20T17:29:38.379Z,-0.03
2023-01-20T17:32:15.283Z,-0.02
2023-01-20T17:34:42.065Z,-0.05
2023-01-20T17:37:09.727Z,-0.05
2023-01-20T17:39:37.447Z,-0.05
2023-01-20T17:42:04.475Z,-0.04
2023-01-20T17:44:40.264Z,-0.03
2023-01-20T17:47:08.104Z,-0.04
2023-01-20T17:49:38.209Z,-0.09
2023-01-20T17:52:05.951Z,-0.12
2023-01-20T17:54:37.493Z,-0.15
2023-01-20T17:57:04.143Z,-0.18
2023-01-20T17:59:33.884Z,-0.21
2023-01-20T18:02:06.585Z,-0.21
2023-01-20T18:04:35.731Z,-0.24
2023-01-20T18:07:09.078Z,-0.27
2023-01-20T18:09:38.734Z,-0.31
2023-01-20T18:12:08.479Z,-0.34
2023-01-20T18:14:38.697Z,-0.34
2023-01-20T18:17:05.607Z,-0.34
2023-01-20T18:19:34.278Z,-0.37
2023-01-20T18:22:05.725Z,-0.37
2023-01-20T18:24:40.248Z,-0.37
2023-01-20T18:27:06.949Z,-0.41
2023-01-20T18:29:36.518Z,-0.47
2023-01-20T18:32:05.678Z,-0.53
2023-01-20T18:34:36.809Z,-0.57
2023-01-20T18:37:11.057Z,-0.68
2023-01-20T18:39:37.881Z,-0.80
2023-01-20T18:42:07.304Z,-0.92
2023-01-20T18:44:35.578Z,-1.07
2023-01-20T18:47:11.114Z,-1.17
2023-01-20T18:49:37.753Z,-1.29
2023-01-20T18:52:14.899Z,-1.43
2023-01-20T18:54:41.527Z,-1.53
2023-01-20T18:57:09.211Z,-1.64
2023-01-20T18:59:43.425Z,-1.73
2023-01-20T19:02:10.828Z,-1.80
2023-01-20T19:04:37.556Z,-1.92
2023-01-20T19:07:12.785Z,-1.92
2023-01-20T19:09:39.545Z,-1.88
2023-01-20T19:12:08.891Z,-1.93
2023-01-20T19:14:35.723Z,-2.05
2023-01-20T19:17:08.376Z,-2.11
2023-01-20T19:19:37.424Z,-2.08
2023-01-20T19:22:06.929Z,-2.10
2023-01-20T19:24:42.319Z,-2.12
2023-01-20T19:27:09.257Z,-2.13
2023-01-20T19:29:48.215Z,-2.25
2023-01-20T19:32:14.830Z,-2.37
2023-01-20T19:34:45.113Z,-2.46
2023-01-20T19:37:17.062Z,-2.51
2023-01-20T19:39:43.764Z,-2.57
2023-01-20T19:42:10.433Z,-2.67
2023-01-20T19:44:39.558Z,-2.67
2023-01-20T19:47:06.225Z,-2.74
2023-01-20T19:49:35.503Z,-2.78
2023-01-20T19:52:06.782Z,-2.83
2023-01-20T19:54:40.924Z,-2.87
2023-01-20T19:57:07.568Z,-2.83
2023-01-20T19:59:40.715Z,-2.93
2023-01-20T20:02:10.553Z,-2.88
2023-01-20T20:04:37.183Z,-2.96
2023-01-20T20:07:06.779Z,-2.95
2023-01-20T20:09:42.459Z,-3.05
2023-01-20T20:12:09.147Z,-3.11
2023-01-20T20:14:35.760Z,-3.17
2023-01-20T20:17:03.352Z,-3.16
2023-01-20T20:19:30.092Z,-3.12
2023-01-20T20:21:58.618Z,-3.11
2023-01-20T20:24:27.585Z,-2.99
2023-01-20T20:26:54.297Z,-2.95
2023-01-20T20:29:21.004Z,-2.84
2023-01-20T20:31:47.767Z,-2.95
2023-01-20T20:34:16.733Z,-2.88
2023-01-20T20:36:43.500Z,-2.81
2023-01-20T20:39:13.887Z,-2.97
2023-01-20T20:41:40.803Z,-3.11
2023-01-20T20:44:07.588Z,-3.20
2023-01-20T20:46:34.303Z,-3.31
2023-01-20T20:49:03.733Z,-3.32
2023-01-20T20:51:32.425Z,-3.37
2023-01-20T20:54:00.704Z,-3.38
2023-01-20T20:56:31.366Z,-3.33
2023-01-20T20:59:02.235Z,-3.34
2023-01-20T21:01:31.056Z,-3.42
2023-01-20T21:03:58.295Z,-3.42
2023-01-20T21:06:25.162Z,-3.43
2023-01-20T21:08:52.292Z,-3.39
2023-01-20T21:11:20.505Z,-3.44
2023-01-20T21:13:49.272Z,-3.34
2023-01-20T21:16:23.392Z,-3.31
2023-01-20T21:18:52.120Z,-3.23
2023-01-20T21:21:19.536Z,-3.23
2023-01-20T21:23:53.559Z,-3.25
2023-01-20T21:26:20.959Z,-3.37
2023-01-20T21:28:49.237Z,-3.38
2023-01-20T21:31:21.545Z,-3.41
2023-01-20T21:33:53.573Z,-3.35
2023-01-20T21:36:20.862Z,-3.39
2023-01-20T21:38:47.544Z,-3.37
2023-01-20T21:41:17.903Z,-3.32
2023-01-20T21:44:04.613Z,-3.32
2023-01-20T21:46:38.955Z,-3.40
2023-01-20T21:49:25.031Z,-3.44
2023-01-20T21:52:10.269Z,-3.45
2023-01-20T21:54:39.370Z,-3.41
2023-01-20T21:57:05.998Z,-3.28
2023-01-20T21:59:37.143Z,-3.32
2023-01-20T22:02:11.505Z,-3.38
2023-01-20T22:04:39.640Z,-3.42
2023-01-20T22:07:08.664Z,-3.60
2023-01-20T22:09:40.162Z,-3.64
2023-01-20T22:12:07.290Z,-3.72
2023-01-20T22:14:41.503Z,-3.81
2023-01-20T22:17:12.367Z,-3.82
2023-01-20T22:19:39.380Z,-3.91
2023-01-20T22:22:06.376Z,-3.96
2023-01-20T22:24:32.925Z,-3.99
2023-01-20T22:26:59.972Z,-3.94
2023-01-20T22:29:26.980Z,-3.81
2023-01-20T22:31:55.291Z,-3.87
2023-01-20T22:34:22.199Z,-3.85
2023-01-20T22:36:48.791Z,-3.93
2023-01-20T22:39:15.714Z,-3.78
2023-01-20T22:41:42.619Z,-3.78
2023-01-20T22:44:12.342Z,-3.85
2023-01-20T22:46:38.957Z,-3.91
2023-01-20T22:49:05.514Z,-3.91
2023-01-20T22:51:32.179Z,-3.90
2023-01-20T22:54:00.380Z,-3.91
2023-01-20T22:56:31.885Z,-3.84
2023-01-20T22:58:59.230Z,-4.01
2023-01-20T23:01:32.402Z,-4.07
2023-01-20T23:04:01.803Z,-4.11
2023-01-20T23:06:30.644Z,-4.16
2023-01-20T23:08:57.281Z,-4.26
2023-01-20T23:11:24.022Z,-4.30
2023-01-20T23:13:51.510Z,-4.17
2023-01-20T23:16:22.397Z,-4.15
2023-01-20T23:18:50.739Z,-4.28
2023-01-20T23:21:17.978Z,-4.37
2023-01-20T23:23:46.017Z,-4.36
2023-01-20T23:26:17.772Z,-4.39
2023-01-20T23:28:45.765Z,-4.25
2023-01-20T23:31:14.850Z,-4.29
2023-01-20T23:33:45.146Z,-4.33
2023-01-20T23:36:23.784Z,-4.26
2023-01-20T23:38:53.977Z,-4.22
2023-01-20T23:41:20.635Z,-4.12
2023-01-20T23:43:47.314Z,-4.06
2023-01-20T23:46:16.373Z,-4.23
2023-01-20T23:48:49.251Z,-4.26
2023-01-20T23:51:18.326Z,-4.27
2023-01-20T23:53:48.050Z,-4.26
2023-01-20T23:56:20.591Z,-4.29
2023-01-20T23:58:47.674Z,-4.33
